createdAt,value
2018-08-11T00:00:25.500Z,95551.33
2018-08-11T00:02:54.452Z,95541.83
2018-08-11T00:05:23.309Z,95537.19
2018-08-11T00:07:52.263Z,95540.08
2018-08-11T00:10:21.297Z,95542.55
2018-08-11T00:12:50.032Z,95544.41
2018-08-11T00:15:20.519Z,95546.27
2018-08-11T00:17:49.770Z,95548.74
2018-08-11T00:20:27.505Z,95544.70
2018-08-11T00:22:56.430Z,95542.50
2018-08-11T00:25:25.326Z,95542.79
2018-08-11T00:27:54.211Z,95537.39
2018-08-11T00:30:23.584Z,95537.33
2018-08-11T00:32:52.523Z,95541.09
2018-08-11T00:35:22.030Z,95542.45
2018-08-11T00:37:50.807Z,95537.27
2018-08-11T00:40:20.554Z,95536.23
2018-08-11T00:42:50.384Z,95529.92
2018-08-11T00:45:20.310Z,95534.73
2018-08-11T00:47:49.158Z,95528.85
2018-08-11T00:50:20.991Z,95532.09
2018-08-11T00:52:49.850Z,95534.15
2018-08-11T00:55:18.708Z,95533.57
2018-08-11T00:57:48.222Z,95529.00
2018-08-11T01:00:18.532Z,95533.86
2018-08-11T01:02:47.501Z,95524.44
2018-08-11T01:05:18.267Z,95523.84
2018-08-11T01:07:47.567Z,95521.70
2018-08-11T01:10:16.976Z,95518.57
2018-08-11T01:12:46.489Z,95510.82
2018-08-11T01:15:19.559Z,95517.80
2018-08-11T01:17:49.163Z,95510.28
2018-08-11T01:20:18.272Z,95501.27
2018-08-11T01:22:47.779Z,95508.78
2018-08-11T01:25:16.795Z,95506.93
2018-08-11T01:27:45.587Z,95507.39
2018-08-11T01:30:20.011Z,95513.30
2018-08-11T01:32:48.825Z,95508.70
2018-08-11T01:35:17.675Z,95513.09
2018-08-11T01:37:47.169Z,95505.03
2018-08-11T01:40:16.812Z,95500.75
2018-08-11T01:42:47.266Z,95504.36
2018-08-11T01:45:16.702Z,95501.58
2018-08-11T01:47:45.868Z,95497.53
2018-08-11T01:50:16.357Z,95495.14
2018-08-11T01:52:46.390Z,95489.98
2018-08-11T01:55:16.678Z,95486.81
2018-08-11T01:57:46.567Z,95493.59
2018-08-11T02:00:16.622Z,95484.23
2018-08-11T02:02:45.458Z,95484.75
2018-08-11T02:05:14.451Z,95489.20
2018-08-11T02:07:44.190Z,95487.12
2018-08-11T02:10:14.514Z,95480.33
2018-08-11T02:12:43.520Z,95479.28
2018-08-11T02:15:13.763Z,95480.03
2018-08-11T02:17:42.949Z,95477.89
2018-08-11T02:20:19.412Z,95477.55
2018-08-11T02:22:49.522Z,95480.33
2018-08-11T02:25:18.711Z,95483.73
2018-08-11T02:27:47.542Z,95479.08
2018-08-11T02:30:17.553Z,95477.98
2018-08-11T02:32:46.433Z,95474.05
2018-08-11T02:35:15.520Z,95473.02
2018-08-11T02:37:44.706Z,95473.95
2018-08-11T02:40:15.052Z,95470.23
2018-08-11T02:42:43.877Z,95467.55
2018-08-11T02:45:16.111Z,95469.23
2018-08-11T02:47:45.499Z,95476.81
2018-08-11T02:50:14.644Z,95464.44
2018-08-11T02:52:43.788Z,95470.53
2018-08-11T02:55:12.788Z,95470.17
2018-08-11T02:57:41.614Z,95463.30
2018-08-11T03:00:11.923Z,95460.13
2018-08-11T03:02:40.810Z,95467.16
2018-08-11T03:05:10.034Z,95466.77
2018-08-11T03:07:39.214Z,95471.59
2018-08-11T03:10:10.483Z,95469.23
2018-08-11T03:12:39.786Z,95468.20
2018-08-11T03:15:10.175Z,95471.05
2018-08-11T03:17:39.384Z,95464.56
2018-08-11T03:20:10.986Z,95477.39
2018-08-11T03:22:39.756Z,95477.62
2018-08-11T03:25:09.730Z,95476.00
2018-08-11T03:27:38.832Z,95476.16
2018-08-11T03:30:08.234Z,95482.73
2018-08-11T03:32:37.129Z,95482.60
2018-08-11T03:35:06.370Z,95482.83
2018-08-11T03:37:35.210Z,95479.45
2018-08-11T03:40:04.052Z,95488.09
2018-08-11T03:42:32.827Z,95484.39
2018-08-11T03:45:01.594Z,95481.92
2018-08-11T03:47:30.398Z,95482.97
2018-08-11T03:49:59.158Z,95483.20
2018-08-11T03:52:28.066Z,95484.03
2018-08-11T03:54:56.822Z,95494.33
2018-08-11T03:57:25.563Z,95488.30
2018-08-11T03:59:54.330Z,95486.96
2018-08-11T04:02:23.495Z,95485.83
2018-08-11T04:04:52.266Z,95486.38
2018-08-11T04:07:20.978Z,95492.86
2018-08-11T04:09:49.795Z,95498.92
2018-08-11T04:12:18.597Z,95496.27
2018-08-11T04:14:47.348Z,95500.17
2018-08-11T04:17:16.168Z,95503.12
2018-08-11T04:19:44.977Z,95502.14
2018-08-11T04:22:13.967Z,95501.24
2018-08-11T04:24:42.736Z,95498.89
2018-08-11T04:27:11.435Z,95500.45
2018-08-11T04:29:40.151Z,95497.02
2018-08-11T04:32:09.150Z,95500.16
2018-08-11T04:34:37.980Z,95498.66
2018-08-11T04:37:06.767Z,95501.28
2018-08-11T04:39:36.169Z,95504.96
2018-08-11T04:42:04.951Z,95499.31
2018-08-11T04:44:33.988Z,95501.84
2018-08-11T04:47:02.798Z,95494.16
2018-08-11T04:49:31.554Z,95497.25
2018-08-11T04:52:00.702Z,95498.42
2018-08-11T04:54:29.421Z,95498.86
2018-08-11T04:56:58.181Z,95497.98
2018-08-11T04:59:27.082Z,95498.29
2018-08-11T05:01:55.904Z,95505.23
2018-08-11T05:04:24.724Z,95500.94
2018-08-11T05:06:53.538Z,95501.74
2018-08-11T05:09:22.337Z,95499.06
2018-08-11T05:11:51.943Z,95496.36
2018-08-11T05:14:20.790Z,95498.80
2018-08-11T05:16:49.912Z,95500.38
2018-08-11T05:19:18.761Z,95495.02
2018-08-11T05:21:47.631Z,95496.65
2018-08-11T05:24:16.409Z,95496.96
2018-08-11T05:26:45.286Z,95493.71
2018-08-11T05:29:14.044Z,95487.76
2018-08-11T05:31:42.884Z,95490.20
2018-08-11T05:34:11.997Z,95491.83
2018-08-11T05:36:40.771Z,95493.42
2018-08-11T05:39:12.884Z,95483.83
2018-08-11T05:41:41.698Z,95491.89
2018-08-11T05:44:10.632Z,95486.77
2018-08-11T05:46:39.822Z,95487.95
2018-08-11T05:49:09.089Z,95494.59
2018-08-11T05:51:37.934Z,95485.28
2018-08-11T05:54:06.797Z,95481.56
2018-08-11T05:56:35.562Z,95484.31
2018-08-11T05:59:04.784Z,95492.86
2018-08-11T06:01:33.613Z,95488.25
2018-08-11T06:04:02.381Z,95485.28
2018-08-11T06:06:31.470Z,95483.72
2018-08-11T06:09:00.322Z,95483.95
2018-08-11T06:11:29.140Z,95486.45
2018-08-11T06:13:58.507Z,95483.38
2018-08-11T06:16:27.270Z,95480.73
2018-08-11T06:18:55.976Z,95490.62
2018-08-11T06:21:24.720Z,95485.77
2018-08-11T06:23:53.560Z,95489.80
2018-08-11T06:26:22.346Z,95486.86
2018-08-11T06:28:54.224Z,95483.94
2018-08-11T06:31:23.044Z,95483.62
2018-08-11T06:33:52.353Z,95481.59
2018-08-11T06:36:21.100Z,95478.30
2018-08-11T06:38:50.148Z,95482.44
2018-08-11T06:41:18.898Z,95475.39
2018-08-11T06:43:47.660Z,95470.77
2018-08-11T06:46:16.449Z,95472.69
2018-08-11T06:48:45.574Z,95471.19
2018-08-11T06:51:14.817Z,95464.02
2018-08-11T06:53:43.670Z,95464.91
2018-08-11T06:56:12.467Z,95469.50
2018-08-11T06:58:41.206Z,95469.23
2018-08-11T07:01:10.040Z,95465.51
2018-08-11T07:03:38.811Z,95461.01
2018-08-11T07:06:07.581Z,95463.74
2018-08-11T07:08:36.364Z,95468.11
2018-08-11T07:11:05.193Z,95462.76
2018-08-11T07:13:34.037Z,95461.07
2018-08-11T07:16:02.791Z,95458.75
2018-08-11T07:18:31.553Z,95462.05
2018-08-11T07:21:00.470Z,95460.48
2018-08-11T07:23:29.379Z,95456.20
2018-08-11T07:25:58.146Z,95461.80
2018-08-11T07:28:26.956Z,95459.13
2018-08-11T07:30:55.916Z,95450.72
2018-08-11T07:33:24.719Z,95452.88
2018-08-11T07:35:53.642Z,95454.20
2018-08-11T07:38:22.523Z,95455.01
2018-08-11T07:40:51.493Z,95458.78
2018-08-11T07:43:20.302Z,95460.73
2018-08-11T07:45:49.239Z,95452.73
2018-08-11T07:48:18.020Z,95454.38
2018-08-11T07:50:46.825Z,95456.59
2018-08-11T07:53:15.590Z,95453.40
2018-08-11T07:55:46.476Z,95450.70
2018-08-11T07:58:15.331Z,95451.33
2018-08-11T08:00:44.067Z,95449.69
2018-08-11T08:03:12.837Z,95452.64
2018-08-11T08:05:41.868Z,95455.08
2018-08-11T08:08:11.123Z,95441.19
2018-08-11T08:10:39.961Z,95445.73
2018-08-11T08:13:09.361Z,95437.98
2018-08-11T08:15:38.389Z,95438.52
2018-08-11T08:18:07.295Z,95442.80
2018-08-11T08:20:36.099Z,95438.77
2018-08-11T08:23:05.003Z,95436.91
2018-08-11T08:25:33.777Z,95438.77
2018-08-11T08:28:02.821Z,95443.07
2018-08-11T08:30:31.667Z,95441.44
2018-08-11T08:33:01.409Z,95433.69
2018-08-11T08:35:30.216Z,95432.61
2018-08-11T08:37:58.975Z,95437.41
2018-08-11T08:40:27.745Z,95432.89
2018-08-11T08:42:56.647Z,95436.13
2018-08-11T08:45:25.431Z,95437.42
2018-08-11T08:47:54.208Z,95428.61
2018-08-11T08:50:22.972Z,95428.33
2018-08-11T08:52:51.673Z,95430.19
2018-08-11T08:55:20.397Z,95423.48
2018-08-11T08:57:49.243Z,95426.17
2018-08-11T09:00:18.031Z,95424.01
2018-08-11T09:02:48.347Z,95420.77
2018-08-11T09:05:17.184Z,95426.95
2018-08-11T09:07:45.965Z,95418.09
2018-08-11T09:10:14.718Z,95416.73
2018-08-11T09:12:43.541Z,95409.47
2018-08-11T09:15:12.740Z,95403.60
2018-08-11T09:17:41.530Z,95399.28
2018-08-11T09:20:10.275Z,95393.91
2018-08-11T09:22:39.036Z,95389.41
2018-08-11T09:25:08.518Z,95391.80
2018-08-11T09:27:37.522Z,95379.46
2018-08-11T09:30:07.775Z,95375.14
2018-08-11T09:32:36.524Z,95379.39
2018-08-11T09:35:05.370Z,95381.80
2018-08-11T09:37:34.194Z,95382.91
2018-08-11T09:40:02.958Z,95376.20
2018-08-11T09:42:31.674Z,95373.26
2018-08-11T09:45:00.557Z,95364.41
2018-08-11T09:47:29.276Z,95369.73
2018-08-11T09:49:58.025Z,95365.48
2018-08-11T09:52:26.758Z,95367.05
2018-08-11T09:54:55.547Z,95369.19
2018-08-11T09:57:24.266Z,95362.50
2018-08-11T09:59:52.971Z,95359.81
2018-08-11T10:02:22.839Z,95352.30
2018-08-11T10:04:51.640Z,95346.11
2018-08-11T10:07:20.406Z,95348.48
2018-08-11T10:09:49.221Z,95354.82
2018-08-11T10:12:18.063Z,95343.55
2018-08-11T10:14:46.835Z,95348.58
2018-08-11T10:17:15.534Z,95341.54
2018-08-11T10:19:44.242Z,95342.78
2018-08-11T10:22:13.112Z,95344.61
2018-08-11T10:24:41.846Z,95346.75
2018-08-11T10:27:10.999Z,95341.47
2018-08-11T10:29:39.787Z,95337.52
2018-08-11T10:32:08.538Z,95333.83
2018-08-11T10:34:37.278Z,95332.75
2018-08-11T10:37:06.758Z,95338.39
2018-08-11T10:39:35.522Z,95327.05
2018-08-11T10:42:04.289Z,95330.20
2018-08-11T10:44:34.929Z,95325.38
2018-08-11T10:47:03.915Z,95324.23
2018-08-11T10:49:32.847Z,95318.47
2018-08-11T10:52:01.653Z,95319.55
2018-08-11T10:54:30.429Z,95305.90
2018-08-11T10:56:59.143Z,95307.95
2018-08-11T10:59:27.870Z,95303.68
2018-08-11T11:01:56.614Z,95300.27
2018-08-11T11:04:25.384Z,95300.45
2018-08-11T11:06:54.144Z,95305.23
2018-08-11T11:09:23.074Z,95301.10
2018-08-11T11:11:51.978Z,95292.02
2018-08-11T11:14:20.711Z,95290.32
2018-08-11T11:16:49.739Z,95291.22
2018-08-11T11:19:18.500Z,95286.73
2018-08-11T11:21:47.258Z,95288.02
2018-08-11T11:24:15.997Z,95285.64
2018-08-11T11:26:44.828Z,95285.03
2018-08-11T11:29:13.611Z,95285.56
2018-08-11T11:31:42.343Z,95267.37
2018-08-11T11:34:11.119Z,95278.83
2018-08-11T11:36:39.957Z,95276.19
2018-08-11T11:39:09.369Z,95275.95
2018-08-11T11:41:38.851Z,95275.31
2018-08-11T11:44:08.043Z,95269.65
2018-08-11T11:46:36.954Z,95261.02
2018-08-11T11:49:05.985Z,95263.45
2018-08-11T11:51:34.723Z,95273.48
2018-08-11T11:54:03.508Z,95261.84
2018-08-11T11:56:32.321Z,95264.27
2018-08-11T11:59:01.084Z,95252.16
2018-08-11T12:01:29.818Z,95251.21
2018-08-11T12:03:58.679Z,95251.66
2018-08-11T12:06:27.400Z,95255.95
2018-08-11T12:08:56.190Z,95248.45
2018-08-11T12:11:24.962Z,95247.80
2018-08-11T12:13:53.679Z,95252.09
2018-08-11T12:16:22.451Z,95256.75
2018-08-11T12:18:51.174Z,95247.02
2018-08-11T12:21:19.955Z,95246.61
2018-08-11T12:23:48.780Z,95236.83
2018-08-11T12:26:17.562Z,95243.73
2018-08-11T12:28:46.394Z,95231.80
2018-08-11T12:31:16.046Z,95229.56
2018-08-11T12:33:45.084Z,95226.02
2018-08-11T12:36:13.846Z,95221.84
2018-08-11T12:38:42.633Z,95226.38
2018-08-11T12:41:11.542Z,95223.64
2018-08-11T12:43:40.280Z,95219.11
2018-08-11T12:46:09.112Z,95214.63
2018-08-11T12:48:37.814Z,95214.08
2018-08-11T12:51:06.950Z,95213.65
2018-08-11T12:53:35.840Z,95207.55
2018-08-11T12:56:04.738Z,95208.89
2018-08-11T12:58:33.594Z,95215.82
2018-08-11T13:01:02.387Z,95207.41
2018-08-11T13:03:31.244Z,95208.01
2018-08-11T13:06:00.040Z,95206.92
2018-08-11T13:08:28.882Z,95205.52
2018-08-11T13:10:57.660Z,95200.91
2018-08-11T13:13:26.435Z,95205.77
2018-08-11T13:15:55.151Z,95199.56
2018-08-11T13:18:24.275Z,95188.63
2018-08-11T13:20:53.394Z,95203.05
2018-08-11T13:23:22.131Z,95203.43
2018-08-11T13:25:50.970Z,95205.69
2018-08-11T13:28:19.759Z,95200.22
2018-08-11T13:30:48.523Z,95190.81
2018-08-11T13:33:17.352Z,95195.20
2018-08-11T13:35:46.085Z,95191.42
2018-08-11T13:38:15.425Z,95186.45
2018-08-11T13:40:44.223Z,95185.78
2018-08-11T13:43:12.934Z,95182.66
2018-08-11T13:45:41.681Z,95181.32
2018-08-11T13:48:10.643Z,95183.09
2018-08-11T13:50:39.382Z,95183.34
2018-08-11T13:53:08.115Z,95181.06
2018-08-11T13:55:37.219Z,95181.22
2018-08-11T13:58:06.450Z,95179.03
2018-08-11T14:00:35.224Z,95174.84
2018-08-11T14:03:04.112Z,95176.48
2018-08-11T14:05:32.916Z,95175.25
2018-08-11T14:08:01.652Z,95175.59
2018-08-11T14:10:30.491Z,95176.17
2018-08-11T14:12:59.286Z,95175.91
2018-08-11T14:15:28.027Z,95174.31
2018-08-11T14:17:56.812Z,95171.80
2018-08-11T14:20:25.562Z,95179.95
2018-08-11T14:22:54.475Z,95179.55
2018-08-11T14:25:23.231Z,95182.34
2018-08-11T14:27:51.998Z,95175.77
2018-08-11T14:30:20.738Z,95174.84
2018-08-11T14:32:49.556Z,95172.66
2018-08-11T14:35:18.443Z,95163.80
2018-08-11T14:37:47.263Z,95168.48
2018-08-11T14:40:16.603Z,95164.98
2018-08-11T14:42:49.894Z,95159.02
2018-08-11T14:45:19.266Z,95159.02
2018-08-11T14:47:48.067Z,95159.27
2018-08-11T14:50:17.110Z,95160.55
2018-08-11T14:52:46.062Z,95159.45
2018-08-11T14:55:14.849Z,95161.31
2018-08-11T14:57:43.581Z,95158.41
2018-08-11T15:00:15.854Z,95165.73
2018-08-11T15:02:44.630Z,95160.24
2018-08-11T15:05:13.806Z,95163.88
2018-08-11T15:07:42.687Z,95154.94
2018-08-11T15:10:11.616Z,95166.16
2018-08-11T15:12:40.538Z,95163.84
2018-08-11T15:15:10.376Z,95176.27
2018-08-11T15:17:42.280Z,95164.77
2018-08-11T15:20:11.141Z,95175.61
2018-08-11T15:22:40.333Z,95175.61
2018-08-11T15:25:10.031Z,95170.57
2018-08-11T15:27:39.127Z,95175.33
2018-08-11T15:30:10.362Z,95169.47
2018-08-11T15:32:39.165Z,95172.42
2018-08-11T15:35:08.779Z,95166.65
2018-08-11T15:37:37.657Z,95172.91
2018-08-11T15:40:07.169Z,95163.16
2018-08-11T15:42:36.060Z,95158.45
2018-08-11T15:45:05.290Z,95173.80
2018-08-11T15:47:34.409Z,95169.09
2018-08-11T15:50:03.131Z,95174.64
2018-08-11T15:52:31.903Z,95182.94
2018-08-11T15:55:00.619Z,95187.45
2018-08-11T15:57:29.467Z,95190.59
2018-08-11T15:59:58.211Z,95190.06
2018-08-11T16:02:27.203Z,95180.45
2018-08-11T16:04:55.910Z,95181.19
2018-08-11T16:07:24.682Z,95189.06
2018-08-11T16:09:53.430Z,95187.81
2018-08-11T16:12:22.673Z,95185.33
2018-08-11T16:14:51.456Z,95191.63
2018-08-11T16:17:20.180Z,95188.40
2018-08-11T16:19:48.922Z,95190.63
2018-08-11T16:22:17.658Z,95196.41
2018-08-11T16:24:46.406Z,95187.07
2018-08-11T16:27:15.167Z,95181.24
2018-08-11T16:29:43.916Z,95184.30
2018-08-11T16:32:13.015Z,95184.10
2018-08-11T16:34:41.767Z,95180.98
2018-08-11T16:37:10.529Z,95180.72
2018-08-11T16:39:39.647Z,95192.35
2018-08-11T16:42:08.440Z,95186.52
2018-08-11T16:44:37.148Z,95184.99
2018-08-11T16:47:06.127Z,95186.07
2018-08-11T16:49:34.862Z,95185.03
2018-08-11T16:52:03.698Z,95185.61
2018-08-11T16:54:32.442Z,95193.42
2018-08-11T16:57:01.192Z,95192.90
2018-08-11T16:59:29.933Z,95196.45
2018-08-11T17:01:58.897Z,95199.64
2018-08-11T17:04:27.619Z,95193.02
2018-08-11T17:06:56.334Z,95194.69
2018-08-11T17:09:25.115Z,95197.91
2018-08-11T17:11:53.884Z,95205.19
2018-08-11T17:14:22.700Z,95199.56
2018-08-11T17:16:51.441Z,95201.49
2018-08-11T17:19:20.161Z,95206.10
2018-08-11T17:21:49.064Z,95206.36
2018-08-11T17:24:17.955Z,95210.70
2018-08-11T17:26:46.715Z,95211.80
2018-08-11T17:29:15.469Z,95209.94
2018-08-11T17:31:44.166Z,95213.96
2018-08-11T17:34:13.015Z,95218.05
2018-08-11T17:36:41.798Z,95220.72
2018-08-11T17:39:11.484Z,95214.59
2018-08-11T17:41:40.522Z,95221.05
2018-08-11T17:44:09.242Z,95223.18
2018-08-11T17:46:38.079Z,95227.75
2018-08-11T17:49:06.826Z,95226.95
2018-08-11T17:51:35.755Z,95235.28
2018-08-11T17:54:04.656Z,95231.52
2018-08-11T17:56:33.434Z,95240.59
2018-08-11T17:59:02.334Z,95245.69
2018-08-11T18:01:31.115Z,95241.41
2018-08-11T18:04:01.557Z,95247.02
2018-08-11T18:06:30.793Z,95247.30
2018-08-11T18:08:59.946Z,95246.23
2018-08-11T18:11:28.762Z,95249.97
2018-08-11T18:13:57.494Z,95257.98
2018-08-11T18:16:26.326Z,95249.97
2018-08-11T18:18:55.208Z,95253.70
2018-08-11T18:21:23.934Z,95257.73
2018-08-11T18:23:52.630Z,95255.84
2018-08-11T18:26:21.536Z,95259.31
2018-08-11T18:28:50.294Z,95259.86
2018-08-11T18:31:19.198Z,95262.52
2018-08-11T18:33:48.096Z,95260.64
2018-08-11T18:36:16.870Z,95259.58
2018-08-11T18:38:45.738Z,95268.12
2018-08-11T18:41:14.519Z,95264.88
2018-08-11T18:43:43.281Z,95271.83
2018-08-11T18:46:12.081Z,95269.42
2018-08-11T18:48:40.842Z,95272.07
2018-08-11T18:51:10.172Z,95276.59
2018-08-11T18:53:38.978Z,95277.95
2018-08-11T18:56:07.821Z,95283.54
2018-08-11T18:58:36.662Z,95287.82
2018-08-11T19:01:05.974Z,95282.97
2018-08-11T19:03:35.274Z,95288.90
2018-08-11T19:06:04.118Z,95287.53
2018-08-11T19:08:32.905Z,95291.54
2018-08-11T19:11:01.675Z,95297.43
2018-08-11T19:13:30.812Z,95296.88
2018-08-11T19:15:59.606Z,95300.06
2018-08-11T19:18:28.407Z,95295.52
2018-08-11T19:20:57.220Z,95299.00
2018-08-11T19:23:26.390Z,95304.31
2018-08-11T19:25:55.175Z,95299.78
2018-08-11T19:28:24.067Z,95302.15
2018-08-11T19:30:52.854Z,95298.70
2018-08-11T19:33:21.605Z,95297.33
2018-08-11T19:35:50.346Z,95297.30
2018-08-11T19:38:19.101Z,95303.41
2018-08-11T19:40:48.346Z,95300.19
2018-08-11T19:43:17.093Z,95301.80
2018-08-11T19:45:45.893Z,95300.98
2018-08-11T19:48:14.693Z,95303.11
2018-08-11T19:50:43.871Z,95306.58
2018-08-11T19:53:12.657Z,95302.30
2018-08-11T19:55:41.450Z,95304.41
2018-08-11T19:58:10.282Z,95302.00
2018-08-11T20:00:39.142Z,95293.97
2018-08-11T20:03:07.915Z,95297.70
2018-08-11T20:05:36.706Z,95298.73
2018-08-11T20:08:05.495Z,95296.59
2018-08-11T20:10:34.666Z,95298.19
2018-08-11T20:13:03.486Z,95298.16
2018-08-11T20:15:32.320Z,95299.47
2018-08-11T20:18:01.159Z,95298.92
2018-08-11T20:20:29.950Z,95294.89
2018-08-11T20:22:58.786Z,95292.75
2018-08-11T20:25:27.660Z,95295.95
2018-08-11T20:27:56.518Z,95298.63
2018-08-11T20:30:25.410Z,95290.56
2018-08-11T20:32:54.206Z,95287.89
2018-08-11T20:35:23.404Z,95287.92
2018-08-11T20:37:52.223Z,95287.64
2018-08-11T20:40:20.976Z,95286.33
2018-08-11T20:42:50.089Z,95284.17
2018-08-11T20:45:18.832Z,95292.45
2018-08-11T20:47:47.691Z,95293.48
2018-08-11T20:50:16.440Z,95304.67
2018-08-11T20:52:45.260Z,95307.59
2018-08-11T20:55:14.113Z,95299.84
2018-08-11T20:57:42.903Z,95297.42
2018-08-11T21:00:13.399Z,95300.84
2018-08-11T21:02:42.440Z,95300.28
2018-08-11T21:05:14.146Z,95304.55
2018-08-11T21:07:43.307Z,95301.54
2018-08-11T21:10:14.340Z,95306.05
2018-08-11T21:12:43.552Z,95309.27
2018-08-11T21:15:13.344Z,95304.70
2018-08-11T21:17:42.263Z,95303.12
2018-08-11T21:20:13.084Z,95301.52
2018-08-11T21:22:42.365Z,95305.77
2018-08-11T21:25:11.998Z,95302.79
2018-08-11T21:27:40.822Z,95309.95
2018-08-11T21:30:12.796Z,95308.31
2018-08-11T21:32:42.043Z,95299.78
2018-08-11T21:35:11.543Z,95297.05
2018-08-11T21:37:40.277Z,95301.34
2018-08-11T21:40:12.598Z,95298.02
2018-08-11T21:42:41.835Z,95302.27
2018-08-11T21:45:10.998Z,95296.58
2018-08-11T21:47:40.611Z,95292.77
2018-08-11T21:50:10.114Z,95300.23
2018-08-11T21:52:39.470Z,95304.48
2018-08-11T21:55:09.059Z,95300.69
2018-08-11T21:57:38.321Z,95302.02
2018-08-11T22:00:33.366Z,95301.21
2018-08-11T22:03:02.426Z,95311.88
2018-08-11T22:05:31.631Z,95306.72
2018-08-11T22:08:01.704Z,95312.05
2018-08-11T22:10:30.728Z,95311.48
2018-08-11T22:12:59.640Z,95312.73
2018-08-11T22:15:28.813Z,95306.77
2018-08-11T22:17:57.608Z,95309.59
2018-08-11T22:20:26.471Z,95301.27
2018-08-11T22:22:55.206Z,95303.69
2018-08-11T22:25:24.417Z,95304.70
2018-08-11T22:27:53.248Z,95297.59
2018-08-11T22:30:22.028Z,95301.34
2018-08-11T22:32:51.144Z,95294.56
2018-08-11T22:35:20.064Z,95299.88
2018-08-11T22:37:48.888Z,95292.41
2018-08-11T22:40:18.447Z,95289.14
2018-08-11T22:42:47.231Z,95292.58
2018-08-11T22:45:16.110Z,95291.00
2018-08-11T22:47:44.885Z,95291.67
2018-08-11T22:50:14.739Z,95284.39
2018-08-11T22:52:44.510Z,95286.72
2018-08-11T22:55:13.308Z,95284.02
2018-08-11T22:57:42.069Z,95286.39
2018-08-11T23:00:17.175Z,95283.73
2018-08-11T23:02:46.163Z,95284.44
2018-08-11T23:05:15.620Z,95284.72
2018-08-11T23:07:44.483Z,95282.48
2018-08-11T23:10:14.477Z,95282.63
2018-08-11T23:12:44.019Z,95287.88
2018-08-11T23:15:15.419Z,95286.22
2018-08-11T23:17:45.455Z,95287.54
2018-08-11T23:20:14.850Z,95283.17
2018-08-11T23:22:43.739Z,95286.83
2018-08-11T23:25:13.319Z,95286.48
2018-08-11T23:27:44.962Z,95278.16
2018-08-11T23:30:15.714Z,95281.25
2018-08-11T23:32:44.830Z,95282.16
2018-08-11T23:35:14.143Z,95286.73
2018-08-11T23:37:43.750Z,95292.00
2018-08-11T23:40:12.898Z,95292.57
2018-08-11T23:42:42.044Z,95289.84
2018-08-11T23:45:13.781Z,95289.22
2018-08-11T23:47:43.163Z,95289.56
2018-08-11T23:50:12.917Z,95289.51
2018-08-11T23:52:42.833Z,95288.92
2018-08-11T23:55:12.855Z,95286.26
2018-08-11T23:57:41.839Z,95288.06
